createdAt,value
2018-10-12T00:00:02.125Z,14.60
2018-10-12T00:02:29.610Z,13.50
2018-10-12T00:04:57.192Z,14.40
2018-10-12T00:07:25.690Z,14.45
2018-10-12T00:09:53.259Z,14.58
2018-10-12T00:12:20.822Z,13.90
2018-10-12T00:14:48.314Z,15.13
2018-10-12T00:17:15.854Z,15.10
2018-10-12T00:19:43.357Z,17.45
2018-10-12T00:22:10.951Z,14.63
2018-10-12T00:24:38.419Z,14.43
2018-10-12T00:27:06.313Z,14.47
2018-10-12T00:29:33.786Z,14.47
2018-10-12T00:32:01.471Z,13.93
2018-10-12T00:34:28.913Z,12.85
2018-10-12T00:36:56.490Z,12.70
2018-10-12T00:39:24.047Z,11.95
2018-10-12T00:41:51.631Z,11.20
2018-10-12T00:44:19.114Z,12.75
2018-10-12T00:46:46.660Z,11.30
2018-10-12T00:49:14.169Z,10.63
2018-10-12T00:51:41.658Z,11.80
2018-10-12T00:54:09.231Z,13.50
2018-10-12T00:56:36.829Z,13.95
2018-10-12T00:59:04.414Z,12.63
2018-10-12T01:01:31.906Z,11.53
2018-10-12T01:03:59.446Z,12.90
2018-10-12T01:06:27.002Z,14.05
2018-10-12T01:08:54.554Z,11.83
2018-10-12T01:11:22.048Z,12.37
2018-10-12T01:13:49.613Z,12.90
2018-10-12T01:16:17.106Z,12.65
2018-10-12T01:18:44.683Z,12.35
2018-10-12T01:21:12.209Z,10.85
2018-10-12T01:23:39.873Z,11.43
2018-10-12T01:26:07.562Z,11.50
2018-10-12T01:28:35.185Z,11.38
2018-10-12T01:31:02.741Z,11.88
2018-10-12T01:33:30.354Z,11.22
2018-10-12T01:35:57.853Z,9.95
2018-10-12T01:38:25.432Z,11.60
2018-10-12T01:40:53.009Z,10.85
2018-10-12T01:43:20.489Z,10.68
2018-10-12T01:45:48.070Z,12.15
2018-10-12T01:48:15.558Z,10.60
2018-10-12T01:50:43.155Z,10.75
2018-10-12T01:53:10.670Z,11.25
2018-10-12T01:55:38.229Z,12.80
2018-10-12T01:58:05.856Z,11.70
2018-10-12T02:00:33.452Z,12.10
2018-10-12T02:03:00.935Z,11.08
2018-10-12T02:05:28.458Z,12.00
2018-10-12T02:07:56.063Z,14.07
2018-10-12T02:10:23.665Z,12.95
2018-10-12T02:12:51.240Z,15.10
2018-10-12T02:15:18.731Z,13.10
2018-10-12T02:17:46.299Z,12.95
2018-10-12T02:20:13.853Z,13.48
2018-10-12T02:22:41.819Z,12.55
2018-10-12T02:25:10.026Z,11.97
2018-10-12T02:27:37.631Z,13.65
2018-10-12T02:30:06.978Z,12.15
2018-10-12T02:32:34.682Z,12.70
2018-10-12T02:35:02.198Z,12.75
2018-10-12T02:37:29.766Z,12.75
2018-10-12T02:39:57.341Z,11.57
2018-10-12T02:42:24.914Z,13.50
2018-10-12T02:44:52.382Z,12.00
2018-10-12T02:47:19.937Z,13.88
2018-10-12T02:49:47.519Z,12.33
2018-10-12T02:52:15.081Z,12.60
2018-10-12T02:54:42.562Z,14.23
2018-10-12T02:57:10.136Z,12.33
2018-10-12T02:59:37.647Z,13.48
2018-10-12T03:02:05.218Z,12.25
2018-10-12T03:04:32.834Z,13.83
2018-10-12T03:07:00.321Z,12.88
2018-10-12T03:09:27.863Z,12.95
2018-10-12T03:11:55.343Z,14.13
2018-10-12T03:14:22.938Z,13.13
2018-10-12T03:16:51.036Z,12.85
2018-10-12T03:19:18.634Z,12.93
2018-10-12T03:21:46.138Z,13.65
2018-10-12T03:24:13.721Z,14.43
2018-10-12T03:26:41.192Z,13.48
2018-10-12T03:29:08.803Z,13.45
2018-10-12T03:31:36.294Z,13.58
2018-10-12T03:34:03.938Z,13.88
2018-10-12T03:36:31.553Z,15.70
2018-10-12T03:38:59.224Z,13.38
2018-10-12T03:41:26.801Z,13.65
2018-10-12T03:43:54.386Z,13.45
2018-10-12T03:46:22.005Z,13.35
2018-10-12T03:48:49.516Z,12.40
2018-10-12T03:51:17.045Z,12.37
2018-10-12T03:53:44.637Z,13.20
2018-10-12T03:56:12.189Z,11.88
2018-10-12T03:58:39.691Z,12.35
2018-10-12T04:01:07.305Z,11.35
2018-10-12T04:03:34.795Z,11.03
2018-10-12T04:06:02.487Z,10.95
2018-10-12T04:08:29.978Z,11.18
2018-10-12T04:10:57.524Z,12.03
2018-10-12T04:13:25.095Z,12.55
2018-10-12T04:15:52.621Z,12.80
2018-10-12T04:18:20.089Z,13.48
2018-10-12T04:20:47.634Z,12.73
2018-10-12T04:23:15.234Z,11.85
2018-10-12T04:25:42.710Z,13.28
2018-10-12T04:28:10.275Z,12.68
2018-10-12T04:30:37.781Z,12.40
2018-10-12T04:33:05.753Z,11.55
2018-10-12T04:39:33.027Z,12.28
2018-10-12T04:42:00.902Z,12.37
2018-10-12T04:44:28.829Z,11.48
2018-10-12T04:46:56.415Z,15.70
2018-10-12T04:49:24.065Z,11.03
2018-10-12T04:51:56.074Z,11.00
2018-10-12T04:54:23.921Z,10.80
2018-10-12T04:56:51.817Z,10.93
2018-10-12T04:59:19.857Z,10.63
2018-10-12T05:01:47.443Z,10.93
2018-10-12T05:04:15.099Z,10.20
2018-10-12T05:06:42.668Z,10.58
2018-10-12T05:09:11.112Z,9.58
2018-10-12T05:11:39.100Z,9.25
2018-10-12T05:14:06.937Z,13.55
2018-10-12T05:16:35.062Z,9.33
2018-10-12T05:19:02.603Z,10.15
2018-10-12T05:21:30.355Z,9.78
2018-10-12T05:23:57.909Z,9.03
2018-10-12T05:26:25.518Z,9.63
2018-10-12T05:28:53.035Z,9.55
2018-10-12T05:31:20.679Z,10.32
2018-10-12T05:33:48.176Z,9.45
2018-10-12T05:36:15.742Z,8.88
2018-10-12T05:38:43.239Z,9.10
2018-10-12T05:41:10.901Z,9.43
2018-10-12T05:43:38.455Z,9.90
2018-10-12T05:46:06.006Z,11.00
2018-10-12T05:48:45.498Z,10.80
2018-10-12T05:51:14.299Z,11.55
2018-10-12T05:53:41.993Z,10.45
2018-10-12T05:56:10.774Z,12.98
2018-10-12T05:58:38.613Z,11.97
2018-10-12T06:01:06.488Z,12.80
2018-10-12T06:03:34.050Z,12.35
2018-10-12T06:06:01.590Z,12.65
2018-10-12T06:08:29.283Z,12.90
2018-10-12T06:10:56.833Z,12.65
2018-10-12T06:13:24.405Z,12.37
2018-10-12T06:15:51.905Z,13.93
2018-10-12T06:18:19.398Z,12.90
2018-10-12T06:20:46.951Z,10.72
2018-10-12T06:23:14.610Z,14.55
2018-10-12T06:25:42.104Z,10.40
2018-10-12T06:28:09.719Z,12.63
2018-10-12T06:30:37.347Z,10.70
2018-10-12T06:33:04.996Z,14.00
2018-10-12T06:35:32.489Z,15.70
2018-10-12T06:38:00.424Z,12.20
2018-10-12T06:40:28.647Z,11.65
2018-10-12T06:42:56.182Z,12.07
2018-10-12T06:45:23.761Z,11.80
2018-10-12T06:47:51.281Z,14.33
2018-10-12T06:50:18.888Z,13.60
2018-10-12T06:52:46.444Z,13.93
2018-10-12T06:55:14.043Z,13.20
2018-10-12T06:57:41.550Z,17.87
2018-10-12T07:00:09.199Z,13.65
2018-10-12T07:02:36.809Z,12.07
2018-10-12T07:05:04.562Z,13.15
2018-10-12T07:07:32.124Z,18.27
2018-10-12T07:09:59.726Z,12.45
2018-10-12T07:12:27.219Z,17.55
2018-10-12T07:14:54.776Z,15.32
2018-10-12T07:17:22.265Z,16.42
2018-10-12T07:19:49.851Z,14.50
2018-10-12T07:22:17.410Z,17.48
2018-10-12T07:24:44.895Z,10.72
2018-10-12T07:27:12.498Z,12.60
2018-10-12T07:29:39.970Z,12.82
2018-10-12T07:32:07.589Z,13.38
2018-10-12T07:34:35.073Z,12.45
2018-10-12T07:37:02.732Z,17.32
2018-10-12T07:39:30.287Z,15.63
2018-10-12T07:41:57.860Z,15.58
2018-10-12T07:44:25.346Z,14.90
2018-10-12T07:46:52.931Z,14.53
2018-10-12T07:49:20.422Z,16.25
2018-10-12T07:51:47.982Z,14.43
2018-10-12T07:54:15.490Z,14.90
2018-10-12T07:56:43.062Z,19.50
2018-10-12T07:59:10.568Z,14.30
2018-10-12T08:01:38.141Z,14.20
2018-10-12T08:04:05.632Z,13.15
2018-10-12T08:06:33.220Z,12.75
2018-10-12T08:09:00.920Z,16.17
2018-10-12T08:11:28.447Z,13.28
2018-10-12T08:13:56.177Z,12.03
2018-10-12T08:16:23.638Z,12.78
2018-10-12T08:18:51.360Z,11.97
2018-10-12T08:21:18.858Z,12.53
2018-10-12T08:23:46.487Z,16.42
2018-10-12T08:26:14.014Z,11.40
2018-10-12T08:28:41.618Z,16.40
2018-10-12T08:31:09.129Z,11.55
2018-10-12T08:33:36.995Z,14.30
2018-10-12T08:36:04.587Z,12.20
2018-10-12T08:38:32.185Z,13.18
2018-10-12T08:40:59.794Z,11.80
2018-10-12T08:43:27.402Z,11.30
2018-10-12T08:45:54.957Z,16.93
2018-10-12T08:48:22.470Z,11.35
2018-10-12T08:50:50.058Z,16.65
2018-10-12T08:53:17.607Z,11.75
2018-10-12T08:55:45.167Z,11.33
2018-10-12T08:58:12.817Z,11.25
2018-10-12T09:00:40.454Z,10.10
2018-10-12T09:03:08.040Z,10.55
2018-10-12T09:05:35.623Z,10.87
2018-10-12T09:08:03.159Z,11.53
2018-10-12T09:10:30.745Z,15.13
2018-10-12T09:12:58.313Z,11.13
2018-10-12T09:15:25.956Z,13.40
2018-10-12T09:17:53.511Z,12.73
2018-10-12T09:20:21.219Z,10.50
2018-10-12T09:22:49.578Z,11.53
2018-10-12T09:25:17.090Z,10.70
2018-10-12T09:27:44.738Z,10.43
2018-10-12T09:30:12.261Z,10.40
2018-10-12T09:32:39.878Z,10.73
2018-10-12T09:35:07.482Z,9.90
2018-10-12T09:37:35.091Z,7.90
2018-10-12T09:40:02.734Z,9.30
2018-10-12T09:42:30.370Z,10.40
2018-10-12T09:44:57.877Z,9.83
2018-10-12T09:47:25.489Z,11.48
2018-10-12T09:49:53.057Z,10.85
2018-10-12T09:52:20.668Z,8.43
2018-10-12T09:54:48.181Z,7.97
2018-10-12T09:57:21.508Z,7.35
2018-10-12T09:59:49.316Z,10.50
2018-10-12T10:02:22.750Z,7.47
2018-10-12T10:04:50.277Z,9.10
2018-10-12T10:07:17.845Z,8.55
2018-10-12T10:09:45.496Z,8.90
2018-10-12T10:12:13.006Z,7.28
2018-10-12T10:14:40.608Z,9.10
2018-10-12T10:17:08.165Z,8.90
2018-10-12T10:19:35.781Z,9.50
2018-10-12T10:22:03.258Z,8.40
2018-10-12T10:24:30.838Z,8.47
2018-10-12T10:26:58.352Z,9.27
2018-10-12T10:29:26.033Z,8.87
2018-10-12T10:31:53.775Z,8.53
2018-10-12T10:34:21.070Z,9.40
2018-10-12T10:36:48.561Z,7.60
2018-10-12T10:39:16.276Z,11.13
2018-10-12T10:41:43.763Z,7.90
2018-10-12T10:44:11.320Z,7.33
2018-10-12T10:46:38.834Z,7.60
2018-10-12T10:49:06.376Z,7.30
2018-10-12T10:51:33.983Z,8.10
2018-10-12T10:54:01.569Z,6.63
2018-10-12T10:56:29.173Z,7.33
2018-10-12T10:58:56.674Z,5.83
2018-10-12T11:01:24.262Z,5.63
2018-10-12T11:03:51.833Z,6.77
2018-10-12T11:06:19.427Z,6.13
2018-10-12T11:08:46.941Z,5.97
2018-10-12T11:11:14.627Z,6.30
2018-10-12T11:13:42.132Z,6.60
2018-10-12T11:16:09.715Z,5.90
2018-10-12T11:18:37.163Z,7.17
2018-10-12T11:21:05.269Z,7.73
2018-10-12T11:23:32.812Z,6.07
2018-10-12T11:26:00.422Z,7.20
2018-10-12T11:28:28.060Z,6.00
2018-10-12T11:30:55.604Z,6.20
2018-10-12T11:33:23.101Z,5.87
2018-10-12T11:35:50.646Z,5.63
2018-10-12T11:38:18.268Z,6.30
2018-10-12T11:40:45.874Z,7.43
2018-10-12T11:43:29.706Z,6.73
2018-10-12T11:45:57.837Z,7.63
2018-10-12T11:48:25.426Z,7.13
2018-10-12T11:50:53.084Z,7.87
2018-10-12T11:53:20.976Z,4.87
2018-10-12T11:55:48.498Z,7.87
2018-10-12T11:58:16.159Z,5.10
2018-10-12T12:00:43.837Z,5.73
2018-10-12T12:03:11.446Z,5.97
2018-10-12T12:05:39.388Z,7.83
2018-10-12T12:08:07.677Z,6.70
2018-10-12T12:10:35.252Z,6.10
2018-10-12T12:13:03.038Z,6.20
2018-10-12T12:15:30.594Z,6.37
2018-10-12T12:17:58.463Z,5.40
2018-10-12T12:20:26.119Z,5.50
2018-10-12T12:22:53.711Z,5.63
2018-10-12T12:25:21.301Z,5.63
2018-10-12T12:27:48.874Z,6.90
2018-10-12T12:30:16.501Z,4.70
2018-10-12T12:32:44.049Z,5.30
2018-10-12T12:35:11.722Z,5.13
2018-10-12T12:37:39.279Z,4.40
2018-10-12T12:40:06.998Z,3.80
2018-10-12T12:42:34.658Z,3.63
2018-10-12T12:45:07.034Z,4.43
2018-10-12T12:50:16.485Z,4.80
2018-10-12T12:52:44.069Z,5.30
2018-10-12T12:55:11.669Z,4.53
2018-10-12T12:57:39.334Z,4.80
2018-10-12T13:00:07.060Z,4.30
2018-10-12T13:02:34.713Z,5.70
2018-10-12T13:05:02.737Z,5.53
2018-10-12T13:07:30.378Z,4.33
2018-10-12T13:09:57.957Z,5.43
2018-10-12T13:12:25.570Z,5.00
2018-10-12T13:14:53.203Z,4.77
2018-10-12T13:17:20.919Z,4.63
2018-10-12T13:19:48.467Z,4.63
2018-10-12T13:22:16.072Z,5.03
2018-10-12T13:24:43.732Z,4.60
2018-10-12T13:27:11.366Z,7.67
2018-10-12T13:29:39.534Z,5.77
2018-10-12T13:32:07.129Z,6.60
2018-10-12T13:34:34.747Z,4.60
2018-10-12T13:37:02.732Z,4.63
2018-10-12T13:39:30.458Z,4.77
2018-10-12T13:41:58.014Z,4.43
2018-10-12T13:44:25.642Z,7.30
2018-10-12T13:46:53.198Z,5.50
2018-10-12T13:49:20.810Z,4.20
2018-10-12T13:51:48.408Z,4.10
2018-10-12T13:54:16.078Z,5.03
2018-10-12T13:56:43.535Z,5.10
2018-10-12T13:59:11.126Z,4.20
2018-10-12T14:01:38.651Z,3.87
2018-10-12T14:04:06.319Z,4.00
2018-10-12T14:06:33.855Z,3.50
2018-10-12T14:09:01.599Z,6.60
2018-10-12T14:11:29.194Z,6.90
2018-10-12T14:13:56.732Z,4.30
2018-10-12T14:16:24.264Z,6.17
2018-10-12T14:18:51.976Z,4.57
2018-10-12T14:21:19.371Z,5.83
2018-10-12T14:23:46.899Z,5.77
2018-10-12T14:26:14.504Z,5.47
2018-10-12T14:28:42.081Z,6.07
2018-10-12T14:31:09.674Z,5.67
2018-10-12T14:33:37.261Z,5.80
2018-10-12T14:36:04.921Z,5.53
2018-10-12T14:38:32.575Z,4.23
2018-10-12T14:41:00.259Z,5.07
2018-10-12T14:43:27.774Z,5.30
2018-10-12T14:45:55.775Z,5.03
2018-10-12T14:48:23.209Z,4.23
2018-10-12T14:50:50.798Z,5.17
2018-10-12T14:53:18.513Z,6.03
2018-10-12T14:55:45.985Z,5.27
2018-10-12T14:58:13.611Z,4.83
2018-10-12T15:00:41.133Z,4.70
2018-10-12T15:03:08.752Z,4.47
2018-10-12T15:05:36.386Z,6.53
2018-10-12T15:08:03.809Z,5.10
2018-10-12T15:10:31.396Z,5.27
2018-10-12T15:12:59.041Z,7.53
2018-10-12T15:15:27.827Z,6.77
2018-10-12T15:17:56.280Z,5.30
2018-10-12T15:20:24.011Z,6.40
2018-10-12T15:22:51.582Z,4.60
2018-10-12T15:25:19.127Z,4.97
2018-10-12T15:27:46.787Z,5.90
2018-10-12T15:30:15.008Z,4.70
2018-10-12T15:32:42.542Z,6.60
2018-10-12T15:35:10.533Z,5.53
2018-10-12T15:37:38.878Z,4.80
2018-10-12T15:40:06.663Z,4.73
2018-10-12T15:42:34.328Z,6.87
2018-10-12T15:45:02.101Z,7.63
2018-10-12T15:47:29.830Z,5.50
2018-10-12T15:49:57.551Z,6.30
2018-10-12T15:52:25.097Z,4.43
2018-10-12T15:54:52.650Z,6.73
2018-10-12T15:57:28.238Z,5.23
2018-10-12T15:59:55.909Z,6.43
2018-10-12T16:02:23.622Z,6.57
2018-10-12T16:04:51.292Z,6.47
2018-10-12T16:07:19.148Z,5.27
2018-10-12T16:09:48.845Z,13.40
2018-10-12T16:12:16.875Z,5.40
2018-10-12T16:14:44.548Z,5.47
2018-10-12T16:17:12.163Z,4.97
2018-10-12T16:19:40.404Z,6.90
2018-10-12T16:22:08.597Z,5.10
2018-10-12T16:24:36.207Z,4.13
2018-10-12T16:27:03.856Z,4.87
2018-10-12T16:29:31.418Z,4.97
2018-10-12T16:31:59.058Z,4.30
2018-10-12T16:34:26.668Z,4.13
2018-10-12T16:36:54.281Z,4.13
2018-10-12T16:39:21.923Z,4.57
2018-10-12T16:41:49.529Z,6.73
2018-10-12T16:44:17.154Z,8.50
2018-10-12T16:46:44.834Z,4.77
2018-10-12T16:49:12.371Z,5.53
2018-10-12T16:51:40.045Z,5.23
2018-10-12T16:54:07.666Z,4.80
2018-10-12T16:56:35.215Z,5.23
2018-10-12T16:59:02.897Z,7.73
2018-10-12T17:01:30.419Z,4.83
2018-10-12T17:03:58.047Z,7.62
2018-10-12T17:06:25.567Z,11.90
2018-10-12T17:08:53.287Z,11.87
2018-10-12T17:11:20.898Z,8.50
2018-10-12T17:13:48.504Z,5.10
2018-10-12T17:16:16.102Z,6.37
2018-10-12T17:18:43.789Z,4.80
2018-10-12T17:21:11.420Z,5.03
2018-10-12T17:23:39.064Z,4.67
2018-10-12T17:26:06.620Z,4.90
2018-10-12T17:28:34.334Z,5.25
2018-10-12T17:31:02.110Z,7.33
2018-10-12T17:33:29.758Z,7.67
2018-10-12T17:35:57.350Z,5.28
2018-10-12T17:38:24.970Z,6.53
2018-10-12T17:40:52.590Z,5.90
2018-10-12T17:43:20.228Z,5.75
2018-10-12T17:45:47.822Z,5.45
2018-10-12T17:48:15.466Z,6.15
2018-10-12T17:50:43.089Z,9.20
2018-10-12T17:53:10.656Z,6.60
2018-10-12T17:55:38.327Z,6.12
2018-10-12T17:58:05.975Z,9.70
2018-10-12T18:00:33.697Z,6.85
2018-10-12T18:03:01.481Z,7.12
2018-10-12T18:05:29.131Z,7.45
2018-10-12T18:07:56.751Z,7.72
2018-10-12T18:10:24.340Z,6.62
2018-10-12T18:12:51.911Z,7.42
2018-10-12T18:15:19.601Z,7.33
2018-10-12T18:17:47.167Z,8.95
2018-10-12T18:20:14.783Z,7.65
2018-10-12T18:22:42.354Z,9.63
2018-10-12T18:25:10.027Z,11.28
2018-10-12T18:27:37.575Z,12.90
2018-10-12T18:30:05.280Z,10.43
2018-10-12T18:32:32.915Z,9.88
2018-10-12T18:35:00.511Z,12.45
2018-10-12T18:37:28.198Z,8.70
2018-10-12T18:39:55.931Z,8.60
2018-10-12T18:42:23.640Z,11.93
2018-10-12T18:44:51.190Z,8.98
2018-10-12T18:47:18.854Z,7.85
2018-10-12T18:49:46.441Z,10.40
2018-10-12T18:52:14.137Z,8.50
2018-10-12T18:54:41.699Z,10.32
2018-10-12T18:57:09.346Z,8.88
2018-10-12T18:59:36.874Z,9.98
2018-10-12T19:02:05.338Z,16.50
2018-10-12T19:04:33.027Z,11.70
2018-10-12T19:07:01.019Z,10.63
2018-10-12T19:09:28.695Z,8.18
2018-10-12T19:11:56.319Z,10.43
2018-10-12T19:14:23.963Z,10.55
2018-10-12T19:16:51.547Z,12.37
2018-10-12T19:19:19.234Z,11.90
2018-10-12T19:21:46.961Z,9.25
2018-10-12T19:24:14.779Z,8.55
2018-10-12T19:26:42.296Z,9.68
2018-10-12T19:29:09.954Z,10.32
2018-10-12T19:31:37.680Z,9.78
2018-10-12T19:34:05.425Z,8.50
2018-10-12T19:36:33.152Z,11.00
2018-10-12T19:39:00.886Z,8.18
2018-10-12T19:41:31.279Z,10.38
2018-10-12T19:43:58.863Z,10.23
2018-10-12T19:46:26.469Z,9.03
2018-10-12T19:48:53.999Z,7.95
2018-10-12T19:51:21.566Z,11.57
2018-10-12T19:53:49.243Z,9.23
2018-10-12T19:56:16.835Z,10.78
2018-10-12T19:58:44.447Z,11.03
2018-10-12T20:01:12.101Z,10.00
2018-10-12T20:03:39.655Z,16.15
2018-10-12T20:06:07.347Z,9.68
2018-10-12T20:08:34.910Z,13.13
2018-10-12T20:11:02.569Z,11.45
2018-10-12T20:13:30.235Z,10.53
2018-10-12T20:15:57.830Z,10.32
2018-10-12T20:18:25.447Z,12.93
2018-10-12T20:20:53.020Z,9.75
2018-10-12T20:23:20.694Z,11.70
2018-10-12T20:25:48.266Z,8.43
2018-10-12T20:28:15.858Z,8.13
2018-10-12T20:30:43.446Z,7.97
2018-10-12T20:33:11.126Z,9.95
2018-10-12T20:35:38.689Z,8.98
2018-10-12T20:38:06.610Z,8.78
2018-10-12T20:40:34.207Z,8.95
2018-10-12T20:43:02.220Z,7.90
2018-10-12T20:45:29.732Z,7.67
2018-10-12T20:47:57.332Z,11.55
2018-10-12T20:50:24.981Z,8.73
2018-10-12T20:52:52.584Z,7.55
2018-10-12T20:55:20.110Z,7.67
2018-10-12T20:57:48.706Z,8.40
2018-10-12T21:00:17.805Z,8.23
2018-10-12T21:02:45.543Z,7.12
2018-10-12T21:05:13.158Z,10.10
2018-10-12T21:07:41.134Z,8.40
2018-10-12T21:10:09.135Z,8.70
2018-10-12T21:12:36.780Z,7.97
2018-10-12T21:15:04.822Z,8.75
2018-10-12T21:17:32.375Z,9.58
2018-10-12T21:20:00.414Z,8.40
2018-10-12T21:22:27.927Z,9.08
2018-10-12T21:24:55.527Z,8.10
2018-10-12T21:27:23.094Z,7.42
2018-10-12T21:29:50.739Z,7.05
2018-10-12T21:32:18.289Z,11.00
2018-10-12T21:34:45.895Z,8.15
2018-10-12T21:37:13.373Z,10.23
2018-10-12T21:39:40.970Z,8.30
2018-10-12T21:42:08.768Z,8.25
2018-10-12T21:44:36.282Z,7.60
2018-10-12T21:47:03.921Z,8.78
2018-10-12T21:49:31.432Z,8.80
2018-10-12T21:51:59.056Z,7.33
2018-10-12T21:54:26.621Z,9.90
2018-10-12T21:56:54.234Z,7.67
2018-10-12T21:59:21.770Z,7.10
2018-10-12T22:01:49.385Z,6.92
2018-10-12T22:04:16.890Z,10.32
2018-10-12T22:06:44.383Z,10.35
2018-10-12T22:09:12.063Z,7.65
2018-10-12T22:11:39.768Z,6.80
2018-10-12T22:14:07.377Z,7.60
2018-10-12T22:16:34.982Z,8.38
2018-10-12T22:19:02.802Z,8.63
2018-10-12T22:21:30.268Z,7.55
2018-10-12T22:23:57.927Z,13.22
2018-10-12T22:26:25.475Z,9.03
2018-10-12T22:28:53.054Z,9.75
2018-10-12T22:31:20.582Z,7.90
2018-10-12T22:33:48.199Z,6.75
2018-10-12T22:36:15.699Z,6.35
2018-10-12T22:38:43.308Z,6.85
2018-10-12T22:41:10.952Z,6.37
2018-10-12T22:43:38.541Z,7.22
2018-10-12T22:46:06.248Z,6.40
2018-10-12T22:48:34.611Z,8.13
2018-10-12T22:51:02.242Z,7.80
2018-10-12T22:53:29.863Z,7.60
2018-10-12T22:55:57.430Z,6.78
2018-10-12T22:58:25.038Z,8.50
2018-10-12T23:00:52.678Z,7.80
2018-10-12T23:03:20.270Z,7.45
2018-10-12T23:05:47.816Z,7.58
2018-10-12T23:08:15.451Z,8.08
2018-10-12T23:10:43.070Z,7.28
2018-10-12T23:13:10.561Z,7.55
2018-10-12T23:15:38.166Z,9.80
2018-10-12T23:18:05.752Z,8.80
2018-10-12T23:20:33.309Z,7.92
2018-10-12T23:23:00.858Z,9.00
2018-10-12T23:25:28.418Z,9.48
2018-10-12T23:27:55.876Z,8.80
2018-10-12T23:30:23.655Z,13.48
2018-10-12T23:32:51.077Z,11.38
2018-10-12T23:35:18.676Z,10.00
2018-10-12T23:37:46.190Z,9.75
2018-10-12T23:40:13.870Z,13.95
2018-10-12T23:42:41.355Z,10.00
2018-10-12T23:45:08.954Z,10.05
2018-10-12T23:47:36.437Z,10.63
2018-10-12T23:50:04.016Z,10.88
2018-10-12T23:52:31.608Z,8.85
2018-10-12T23:54:59.089Z,8.88
2018-10-12T23:57:26.666Z,7.60
2018-10-12T23:59:54.163Z,8.50
